sensor_id;sensor_type;location;lat;lon;timestamp;pressure;altitude;pressure_sealevel;temperature;humidity
49709;BME280;35601;55.902;13.606;2023-08-06T00:00:22;100258.35;;;11.33;73.90
49709;BME280;35601;55.902;13.606;2023-08-06T00:02:47;100255.03;;;11.70;74.21
49709;BME280;35601;55.902;13.606;2023-08-06T00:05:12;100252.85;;;11.36;74.37
49709;BME280;35601;55.902;13.606;2023-08-06T00:07:37;100247.56;;;11.26;74.59
49709;BME280;35601;55.902;13.606;2023-08-06T00:10:02;100243.09;;;11.14;75.93
49709;BME280;35601;55.902;13.606;2023-08-06T00:12:27;100244.54;;;11.37;75.95
49709;BME280;35601;55.902;13.606;2023-08-06T00:14:54;100240.66;;;11.31;75.59
49709;BME280;35601;55.902;13.606;2023-08-06T00:17:18;100237.79;;;11.01;75.66
49709;BME280;35601;55.902;13.606;2023-08-06T00:19:43;100236.40;;;11.14;75.55
49709;BME280;35601;55.902;13.606;2023-08-06T00:22:08;100233.91;;;11.30;75.44
49709;BME280;35601;55.902;13.606;2023-08-06T00:24:34;100229.62;;;10.74;75.33
49709;BME280;35601;55.902;13.606;2023-08-06T00:26:58;100230.54;;;11.12;75.29
49709;BME280;35601;55.902;13.606;2023-08-06T00:29:24;100230.88;;;10.82;75.32
49709;BME280;35601;55.902;13.606;2023-08-06T00:31:49;100231.68;;;10.75;75.48
49709;BME280;35601;55.902;13.606;2023-08-06T00:34:14;100230.01;;;10.68;75.61
49709;BME280;35601;55.902;13.606;2023-08-06T00:36:39;100229.95;;;10.57;75.79
49709;BME280;35601;55.902;13.606;2023-08-06T00:39:04;100228.38;;;10.76;76.13
49709;BME280;35601;55.902;13.606;2023-08-06T00:41:30;100221.08;;;10.24;76.81
49709;BME280;35601;55.902;13.606;2023-08-06T00:43:55;100221.42;;;10.22;76.75
49709;BME280;35601;55.902;13.606;2023-08-06T00:46:20;100228.52;;;10.65;76.76
49709;BME280;35601;55.902;13.606;2023-08-06T00:48:45;100226.24;;;10.62;77.21
49709;BME280;35601;55.902;13.606;2023-08-06T00:51:11;100220.95;;;10.58;77.23
49709;BME280;35601;55.902;13.606;2023-08-06T00:53:36;100219.72;;;10.30;77.64
49709;BME280;35601;55.902;13.606;2023-08-06T00:56:01;100216.81;;;10.57;78.07
49709;BME280;35601;55.902;13.606;2023-08-06T00:58:26;100214.92;;;10.59;77.82
49709;BME280;35601;55.902;13.606;2023-08-06T01:00:51;100216.16;;;10.55;78.28
49709;BME280;35601;55.902;13.606;2023-08-06T01:03:17;100217.18;;;10.30;77.77
49709;BME280;35601;55.902;13.606;2023-08-06T01:05:42;100220.87;;;10.49;77.36
49709;BME280;35601;55.902;13.606;2023-08-06T01:08:15;100224.43;;;10.27;77.08
49709;BME280;35601;55.902;13.606;2023-08-06T01:10:40;100228.20;;;10.52;76.86
49709;BME280;35601;55.902;13.606;2023-08-06T01:13:06;100231.18;;;10.46;76.68
49709;BME280;35601;55.902;13.606;2023-08-06T01:15:28;100229.78;;;10.15;76.85
49709;BME280;35601;55.902;13.606;2023-08-06T01:17:48;100227.52;;;10.37;76.99
49709;BME280;35601;55.902;13.606;2023-08-06T01:20:14;100225.20;;;10.31;77.21
49709;BME280;35601;55.902;13.606;2023-08-06T01:22:39;100218.95;;;10.29;77.36
49709;BME280;35601;55.902;13.606;2023-08-06T01:25:05;100213.51;;;10.25;77.63
49709;BME280;35601;55.902;13.606;2023-08-06T01:27:37;100211.91;;;10.21;77.73
49709;BME280;35601;55.902;13.606;2023-08-06T01:29:59;100211.83;;;10.42;77.77
49709;BME280;35601;55.902;13.606;2023-08-06T01:32:20;100217.48;;;9.95;77.90
49709;BME280;35601;55.902;13.606;2023-08-06T01:34:47;100214.26;;;10.16;78.16
49709;BME280;35601;55.902;13.606;2023-08-06T01:37:10;100207.47;;;10.12;78.57
49709;BME280;35601;55.902;13.606;2023-08-06T01:39:36;100200.59;;;9.96;80.83
49709;BME280;35601;55.902;13.606;2023-08-06T01:42:01;100200.95;;;9.96;82.16
49709;BME280;35601;55.902;13.606;2023-08-06T01:44:26;100203.85;;;10.23;83.28
49709;BME280;35601;55.902;13.606;2023-08-06T01:46:51;100203.15;;;10.10;83.39
49709;BME280;35601;55.902;13.606;2023-08-06T01:49:16;100199.61;;;8.77;82.75
49709;BME280;35601;55.902;13.606;2023-08-06T01:51:41;100197.36;;;10.41;82.28
49709;BME280;35601;55.902;13.606;2023-08-06T01:54:06;100196.65;;;10.42;83.02
49709;BME280;35601;55.902;13.606;2023-08-06T01:56:32;100192.06;;;10.38;84.00
49709;BME280;35601;55.902;13.606;2023-08-06T01:58:57;100190.77;;;10.36;84.82
49709;BME280;35601;55.902;13.606;2023-08-06T02:01:23;100190.94;;;10.38;85.63
49709;BME280;35601;55.902;13.606;2023-08-06T02:03:48;100191.79;;;10.38;86.03
49709;BME280;35601;55.902;13.606;2023-08-06T02:06:13;100190.46;;;10.20;86.08
49709;BME280;35601;55.902;13.606;2023-08-06T02:08:38;100191.80;;;10.53;85.91
49709;BME280;35601;55.902;13.606;2023-08-06T02:11:04;100191.64;;;10.56;85.43
49709;BME280;35601;55.902;13.606;2023-08-06T02:13:29;100196.11;;;10.54;85.20
49709;BME280;35601;55.902;13.606;2023-08-06T02:15:54;100200.35;;;10.27;85.56
49709;BME280;35601;55.902;13.606;2023-08-06T02:18:20;100209.06;;;10.55;85.36
49709;BME280;35601;55.902;13.606;2023-08-06T02:20:55;100211.40;;;10.63;85.15
49709;BME280;35601;55.902;13.606;2023-08-06T02:23:11;100202.26;;;10.67;85.40
49709;BME280;35601;55.902;13.606;2023-08-06T02:25:36;100197.73;;;10.61;85.55
49709;BME280;35601;55.902;13.606;2023-08-06T02:28:01;100190.10;;;10.67;85.20
49709;BME280;35601;55.902;13.606;2023-08-06T02:30:27;100195.47;;;10.41;85.19
49709;BME280;35601;55.902;13.606;2023-08-06T02:32:52;100194.95;;;10.48;84.71
49709;BME280;35601;55.902;13.606;2023-08-06T02:35:17;100199.13;;;10.36;84.79
49709;BME280;35601;55.902;13.606;2023-08-06T02:37:42;100199.65;;;10.59;84.75
49709;BME280;35601;55.902;13.606;2023-08-06T02:40:08;100194.09;;;10.65;84.62
49709;BME280;35601;55.902;13.606;2023-08-06T02:42:33;100190.12;;;10.49;84.13
49709;BME280;35601;55.902;13.606;2023-08-06T02:44:58;100188.18;;;10.63;84.28
49709;BME280;35601;55.902;13.606;2023-08-06T02:47:23;100181.51;;;10.57;84.73
49709;BME280;35601;55.902;13.606;2023-08-06T02:49:48;100181.28;;;10.30;84.71
49709;BME280;35601;55.902;13.606;2023-08-06T02:52:13;100182.25;;;10.43;84.91
49709;BME280;35601;55.902;13.606;2023-08-06T02:54:39;100187.47;;;10.48;84.67
49709;BME280;35601;55.902;13.606;2023-08-06T02:57:05;100193.03;;;10.52;84.41
49709;BME280;35601;55.902;13.606;2023-08-06T02:59:29;100191.04;;;10.20;84.64
49709;BME280;35601;55.902;13.606;2023-08-06T03:01:54;100187.24;;;10.53;84.33
49709;BME280;35601;55.902;13.606;2023-08-06T03:04:19;100180.27;;;10.55;84.13
49709;BME280;35601;55.902;13.606;2023-08-06T03:06:45;100181.07;;;10.19;84.39
49709;BME280;35601;55.902;13.606;2023-08-06T03:09:10;100174.67;;;10.53;84.16
49709;BME280;35601;55.902;13.606;2023-08-06T03:11:35;100170.37;;;10.55;83.95
49709;BME280;35601;55.902;13.606;2023-08-06T03:14:00;100169.08;;;10.58;84.10
49709;BME280;35601;55.902;13.606;2023-08-06T03:16:26;100168.46;;;10.30;84.09
49709;BME280;35601;55.902;13.606;2023-08-06T03:18:51;100168.23;;;10.54;84.11
49709;BME280;35601;55.902;13.606;2023-08-06T03:21:16;100167.46;;;10.32;84.29
49709;BME280;35601;55.902;13.606;2023-08-06T03:23:41;100163.99;;;10.54;84.27
49709;BME280;35601;55.902;13.606;2023-08-06T03:26:06;100162.65;;;10.42;84.93
49709;BME280;35601;55.902;13.606;2023-08-06T03:28:32;100159.75;;;10.47;85.02
49709;BME280;35601;55.902;13.606;2023-08-06T03:31:00;100156.94;;;10.48;84.99
49709;BME280;35601;55.902;13.606;2023-08-06T03:33:22;100157.44;;;10.43;85.43
49709;BME280;35601;55.902;13.606;2023-08-06T03:35:47;100157.75;;;10.18;86.44
49709;BME280;35601;55.902;13.606;2023-08-06T03:38:12;100155.49;;;10.19;86.46
49709;BME280;35601;55.902;13.606;2023-08-06T03:40:38;100152.91;;;10.18;86.58
49709;BME280;35601;55.902;13.606;2023-08-06T03:43:03;100145.93;;;9.92;86.98
49709;BME280;35601;55.902;13.606;2023-08-06T03:45:29;100139.85;;;10.14;87.33
49709;BME280;35601;55.902;13.606;2023-08-06T03:47:54;100135.16;;;10.25;87.20
49709;BME280;35601;55.902;13.606;2023-08-06T03:50:19;100136.99;;;10.46;87.28
49709;BME280;35601;55.902;13.606;2023-08-06T03:52:44;100135.99;;;10.31;87.37
49709;BME280;35601;55.902;13.606;2023-08-06T03:55:09;100130.70;;;10.29;86.74
49709;BME280;35601;55.902;13.606;2023-08-06T03:57:34;100122.86;;;10.22;86.96
49709;BME280;35601;55.902;13.606;2023-08-06T04:00:01;100117.55;;;10.29;86.70
49709;BME280;35601;55.902;13.606;2023-08-06T04:02:25;100115.25;;;10.38;86.35
49709;BME280;35601;55.902;13.606;2023-08-06T04:04:51;100112.66;;;10.38;86.35
49709;BME280;35601;55.902;13.606;2023-08-06T04:07:17;100115.63;;;10.48;86.37
49709;BME280;35601;55.902;13.606;2023-08-06T04:09:52;100111.23;;;10.57;85.99
49709;BME280;35601;55.902;13.606;2023-08-06T04:12:07;100103.66;;;10.59;85.87
49709;BME280;35601;55.902;13.606;2023-08-06T04:14:33;100093.02;;;10.93;85.44
49709;BME280;35601;55.902;13.606;2023-08-06T04:16:58;100080.08;;;10.54;85.37
49709;BME280;35601;55.902;13.606;2023-08-06T04:19:23;100075.92;;;10.59;85.37
49709;BME280;35601;55.902;13.606;2023-08-06T04:21:48;100072.39;;;10.44;85.27
49709;BME280;35601;55.902;13.606;2023-08-06T04:24:13;100071.23;;;10.68;85.28
49709;BME280;35601;55.902;13.606;2023-08-06T04:26:39;100068.02;;;10.67;85.10
49709;BME280;35601;55.902;13.606;2023-08-06T04:29:04;100068.98;;;10.76;84.99
49709;BME280;35601;55.902;13.606;2023-08-06T04:31:30;100071.81;;;10.62;84.91
49709;BME280;35601;55.902;13.606;2023-08-06T04:33:55;100069.67;;;10.63;84.04
49709;BME280;35601;55.902;13.606;2023-08-06T04:36:20;100071.84;;;10.77;84.49
49709;BME280;35601;55.902;13.606;2023-08-06T04:38:45;100070.35;;;10.73;84.38
49709;BME280;35601;55.902;13.606;2023-08-06T04:41:11;100068.46;;;10.86;84.60
49709;BME280;35601;55.902;13.606;2023-08-06T04:43:36;100068.53;;;10.72;84.17
49709;BME280;35601;55.902;13.606;2023-08-06T04:46:01;100067.16;;;9.53;83.89
49709;BME280;35601;55.902;13.606;2023-08-06T04:48:26;100067.98;;;10.71;83.56
49709;BME280;35601;55.902;13.606;2023-08-06T04:50:51;100069.85;;;10.91;83.21
49709;BME280;35601;55.902;13.606;2023-08-06T04:53:16;100069.46;;;10.71;83.00
49709;BME280;35601;55.902;13.606;2023-08-06T04:55:42;100067.01;;;10.75;82.62
49709;BME280;35601;55.902;13.606;2023-08-06T04:58:08;100055.71;;;10.79;82.84
49709;BME280;35601;55.902;13.606;2023-08-06T05:00:33;100049.63;;;11.15;82.60
49709;BME280;35601;55.902;13.606;2023-08-06T05:02:59;100046.99;;;10.94;82.43
49709;BME280;35601;55.902;13.606;2023-08-06T05:05:22;100052.21;;;10.78;82.19
49709;BME280;35601;55.902;13.606;2023-08-06T05:07:49;100056.41;;;10.80;82.23
49709;BME280;35601;55.902;13.606;2023-08-06T05:10:13;100055.65;;;10.85;82.41
49709;BME280;35601;55.902;13.606;2023-08-06T05:12:39;100043.12;;;11.19;82.22
49709;BME280;35601;55.902;13.606;2023-08-06T05:15:05;100037.60;;;11.01;81.57
49709;BME280;35601;55.902;13.606;2023-08-06T05:17:30;100032.75;;;11.27;81.66
49709;BME280;35601;55.902;13.606;2023-08-06T05:19:55;100030.03;;;11.34;81.79
49709;BME280;35601;55.902;13.606;2023-08-06T05:22:20;100032.54;;;11.33;82.01
49709;BME280;35601;55.902;13.606;2023-08-06T05:24:45;100031.02;;;11.19;81.89
49709;BME280;35601;55.902;13.606;2023-08-06T05:27:10;100031.89;;;11.22;81.29
49709;BME280;35601;55.902;13.606;2023-08-06T05:29:36;100036.35;;;11.39;81.38
49709;BME280;35601;55.902;13.606;2023-08-06T05:32:01;100030.77;;;11.43;81.32
49709;BME280;35601;55.902;13.606;2023-08-06T05:34:26;100031.24;;;11.55;81.12
49709;BME280;35601;55.902;13.606;2023-08-06T05:36:51;100027.80;;;11.55;80.55
49709;BME280;35601;55.902;13.606;2023-08-06T05:39:17;100016.55;;;11.73;80.73
49709;BME280;35601;55.902;13.606;2023-08-06T05:41:42;100011.13;;;11.79;80.49
49709;BME280;35601;55.902;13.606;2023-08-06T05:44:07;100002.10;;;11.74;80.71
49709;BME280;35601;55.902;13.606;2023-08-06T05:46:32;100001.64;;;11.85;80.78
49709;BME280;35601;55.902;13.606;2023-08-06T05:48:58;100000.15;;;11.67;80.52
49709;BME280;35601;55.902;13.606;2023-08-06T05:51:23;99994.75;;;11.98;80.55
49709;BME280;35601;55.902;13.606;2023-08-06T05:53:49;99990.84;;;11.88;80.76
49709;BME280;35601;55.902;13.606;2023-08-06T05:56:14;99990.51;;;11.91;80.53
49709;BME280;35601;55.902;13.606;2023-08-06T05:58:39;99988.36;;;12.11;80.57
49709;BME280;35601;55.902;13.606;2023-08-06T06:01:05;99990.30;;;11.97;80.36
49709;BME280;35601;55.902;13.606;2023-08-06T06:03:31;99992.70;;;12.16;80.58
49709;BME280;35601;55.902;13.606;2023-08-06T06:05:56;99992.89;;;12.31;80.07
49709;BME280;35601;55.902;13.606;2023-08-06T06:08:21;99991.19;;;12.26;79.22
49709;BME280;35601;55.902;13.606;2023-08-06T06:10:46;99996.00;;;12.63;79.48
49709;BME280;35601;55.902;13.606;2023-08-06T06:13:11;99995.05;;;12.42;78.61
49709;BME280;35601;55.902;13.606;2023-08-06T06:15:37;99995.18;;;12.91;78.10
49709;BME280;35601;55.902;13.606;2023-08-06T06:18:02;99996.27;;;12.80;77.66
49709;BME280;35601;55.902;13.606;2023-08-06T06:20:27;99995.84;;;12.65;77.05
49709;BME280;35601;55.902;13.606;2023-08-06T06:22:52;99995.88;;;12.77;77.03
49709;BME280;35601;55.902;13.606;2023-08-06T06:25:18;99986.84;;;12.82;76.98
49709;BME280;35601;55.902;13.606;2023-08-06T06:27:42;99978.12;;;12.85;76.67
49709;BME280;35601;55.902;13.606;2023-08-06T06:30:08;99968.72;;;12.98;76.82
49709;BME280;35601;55.902;13.606;2023-08-06T06:32:33;99969.67;;;13.00;75.59
49709;BME280;35601;55.902;13.606;2023-08-06T06:34:58;99968.15;;;13.21;76.52
49709;BME280;35601;55.902;13.606;2023-08-06T06:37:24;99971.74;;;13.32;75.05
49709;BME280;35601;55.902;13.606;2023-08-06T06:39:49;99969.82;;;13.42;74.09
49709;BME280;35601;55.902;13.606;2023-08-06T06:42:14;99963.33;;;13.64;74.53
49709;BME280;35601;55.902;13.606;2023-08-06T06:44:39;99965.12;;;13.31;73.32
49709;BME280;35601;55.902;13.606;2023-08-06T06:47:04;99966.31;;;13.50;73.37
49709;BME280;35601;55.902;13.606;2023-08-06T06:49:30;99966.75;;;13.77;73.46
49709;BME280;35601;55.902;13.606;2023-08-06T06:51:55;99957.52;;;13.40;73.16
49709;BME280;35601;55.902;13.606;2023-08-06T06:54:20;99957.00;;;13.53;73.11
49709;BME280;35601;55.902;13.606;2023-08-06T06:56:45;99955.66;;;13.55;73.64
49709;BME280;35601;55.902;13.606;2023-08-06T06:59:10;99951.39;;;13.48;72.91
49709;BME280;35601;55.902;13.606;2023-08-06T07:01:35;99952.06;;;13.48;72.95
49709;BME280;35601;55.902;13.606;2023-08-06T07:04:01;99954.82;;;13.90;73.60
49709;BME280;35601;55.902;13.606;2023-08-06T07:06:26;99953.66;;;14.02;73.41
49709;BME280;35601;55.902;13.606;2023-08-06T07:08:51;99951.52;;;13.62;73.56
49709;BME280;35601;55.902;13.606;2023-08-06T07:11:16;99948.15;;;13.83;73.04
49709;BME280;35601;55.902;13.606;2023-08-06T07:13:41;99947.52;;;14.02;73.33
49709;BME280;35601;55.902;13.606;2023-08-06T07:16:06;99947.52;;;14.12;72.54
49709;BME280;35601;55.902;13.606;2023-08-06T07:18:31;99948.59;;;13.74;73.07
49709;BME280;35601;55.902;13.606;2023-08-06T07:20:57;99945.58;;;14.21;73.45
49709;BME280;35601;55.902;13.606;2023-08-06T07:23:23;99942.73;;;13.69;73.85
49709;BME280;35601;55.902;13.606;2023-08-06T07:25:48;99942.83;;;13.92;74.17
49709;BME280;35601;55.902;13.606;2023-08-06T07:28:13;99938.97;;;14.06;74.42
49709;BME280;35601;55.902;13.606;2023-08-06T07:30:38;99938.40;;;14.12;74.68
49709;BME280;35601;55.902;13.606;2023-08-06T07:33:03;99939.92;;;13.71;74.01
49709;BME280;35601;55.902;13.606;2023-08-06T07:35:29;99937.71;;;13.64;74.44
49709;BME280;35601;55.902;13.606;2023-08-06T07:37:54;99938.07;;;13.98;74.43
49709;BME280;35601;55.902;13.606;2023-08-06T07:40:19;99938.00;;;13.81;74.79
49709;BME280;35601;55.902;13.606;2023-08-06T07:42:44;99945.33;;;13.74;75.16
49709;BME280;35601;55.902;13.606;2023-08-06T07:45:09;99947.47;;;13.79;74.66
49709;BME280;35601;55.902;13.606;2023-08-06T07:47:34;99948.15;;;13.91;74.34
49709;BME280;35601;55.902;13.606;2023-08-06T07:49:59;99949.76;;;14.03;74.13
49709;BME280;35601;55.902;13.606;2023-08-06T07:52:25;99949.51;;;14.04;74.07
49709;BME280;35601;55.902;13.606;2023-08-06T07:54:50;99946.84;;;14.16;73.76
49709;BME280;35601;55.902;13.606;2023-08-06T07:57:16;99950.27;;;14.16;73.22
49709;BME280;35601;55.902;13.606;2023-08-06T07:59:41;99952.93;;;14.41;73.39
49709;BME280;35601;55.902;13.606;2023-08-06T08:02:06;99952.18;;;14.26;72.42
49709;BME280;35601;55.902;13.606;2023-08-06T08:04:31;99953.51;;;14.24;72.01
49709;BME280;35601;55.902;13.606;2023-08-06T08:06:56;99950.88;;;14.25;72.19
49709;BME280;35601;55.902;13.606;2023-08-06T08:09:21;99944.64;;;14.30;71.81
49709;BME280;35601;55.902;13.606;2023-08-06T08:11:46;99939.39;;;14.39;72.07
49709;BME280;35601;55.902;13.606;2023-08-06T08:14:12;99942.55;;;14.24;71.65
49709;BME280;35601;55.902;13.606;2023-08-06T08:16:37;99947.91;;;14.36;71.68
49709;BME280;35601;55.902;13.606;2023-08-06T08:19:02;99948.01;;;14.67;71.60
49709;BME280;35601;55.902;13.606;2023-08-06T08:21:27;99949.35;;;14.27;71.52
49709;BME280;35601;55.902;13.606;2023-08-06T08:23:52;99944.13;;;14.45;71.57
49709;BME280;35601;55.902;13.606;2023-08-06T08:26:17;99943.51;;;14.69;72.40
49709;BME280;35601;55.902;13.606;2023-08-06T08:28:43;99940.86;;;14.37;71.39
49709;BME280;35601;55.902;13.606;2023-08-06T08:31:08;99939.58;;;14.73;71.52
49709;BME280;35601;55.902;13.606;2023-08-06T08:33:33;99942.09;;;14.46;70.77
49709;BME280;35601;55.902;13.606;2023-08-06T08:35:58;99943.86;;;14.72;71.22
49709;BME280;35601;55.902;13.606;2023-08-06T08:38:23;99946.54;;;14.79;71.46
49709;BME280;35601;55.902;13.606;2023-08-06T08:40:51;99945.36;;;14.59;71.05
49709;BME280;35601;55.902;13.606;2023-08-06T08:43:14;99946.49;;;14.38;70.25
49709;BME280;35601;55.902;13.606;2023-08-06T08:45:40;99944.15;;;14.66;70.33
49709;BME280;35601;55.902;13.606;2023-08-06T08:48:04;99942.68;;;14.70;69.61
49709;BME280;35601;55.902;13.606;2023-08-06T08:50:29;99939.32;;;14.74;70.23
49709;BME280;35601;55.902;13.606;2023-08-06T08:52:56;99942.10;;;14.83;70.38
49709;BME280;35601;55.902;13.606;2023-08-06T08:55:22;99939.21;;;14.90;71.12
49709;BME280;35601;55.902;13.606;2023-08-06T08:57:46;99936.36;;;14.61;71.44
49709;BME280;35601;55.902;13.606;2023-08-06T09:00:11;99932.39;;;14.37;71.48
49709;BME280;35601;55.902;13.606;2023-08-06T09:02:38;99929.47;;;14.26;71.00
49709;BME280;35601;55.902;13.606;2023-08-06T09:05:03;99926.01;;;14.91;71.92
49709;BME280;35601;55.902;13.606;2023-08-06T09:07:27;99921.81;;;14.83;72.13
49709;BME280;35601;55.902;13.606;2023-08-06T09:09:52;99920.98;;;14.41;72.71
49709;BME280;35601;55.902;13.606;2023-08-06T09:12:17;99915.52;;;14.53;73.47
49709;BME280;35601;55.902;13.606;2023-08-06T09:14:42;99915.06;;;14.58;73.55
49709;BME280;35601;55.902;13.606;2023-08-06T09:17:07;99917.19;;;14.45;73.64
49709;BME280;35601;55.902;13.606;2023-08-06T09:19:32;99919.64;;;14.66;73.43
49709;BME280;35601;55.902;13.606;2023-08-06T09:21:58;99917.06;;;14.55;73.26
49709;BME280;35601;55.902;13.606;2023-08-06T09:24:23;99917.79;;;14.42;73.96
49709;BME280;35601;55.902;13.606;2023-08-06T09:26:48;99913.88;;;14.39;74.08
49709;BME280;35601;55.902;13.606;2023-08-06T09:29:13;99911.12;;;14.60;74.89
49709;BME280;35601;55.902;13.606;2023-08-06T09:31:41;99913.91;;;14.38;75.06
49709;BME280;35601;55.902;13.606;2023-08-06T09:34:10;99918.12;;;14.38;75.86
49709;BME280;35601;55.902;13.606;2023-08-06T09:36:29;99916.98;;;14.42;75.76
49709;BME280;35601;55.902;13.606;2023-08-06T09:38:54;99913.22;;;14.29;75.66
49709;BME280;35601;55.902;13.606;2023-08-06T09:41:27;99908.68;;;14.88;75.76
49709;BME280;35601;55.902;13.606;2023-08-06T09:43:44;99914.72;;;14.51;77.33
49709;BME280;35601;55.902;13.606;2023-08-06T09:46:12;99914.80;;;14.54;77.60
49709;BME280;35601;55.902;13.606;2023-08-06T09:48:35;99910.77;;;14.33;77.96
49709;BME280;35601;55.902;13.606;2023-08-06T09:51:01;99912.80;;;14.63;77.36
49709;BME280;35601;55.902;13.606;2023-08-06T09:53:25;99911.65;;;14.47;78.32
49709;BME280;35601;55.902;13.606;2023-08-06T09:55:51;99908.19;;;14.39;78.54
49709;BME280;35601;55.902;13.606;2023-08-06T09:58:16;99910.40;;;14.66;79.03
49709;BME280;35601;55.902;13.606;2023-08-06T10:00:41;99906.70;;;14.38;79.34
49709;BME280;35601;55.902;13.606;2023-08-06T10:03:06;99903.13;;;14.71;79.93
49709;BME280;35601;55.902;13.606;2023-08-06T10:05:32;99900.46;;;14.53;79.27
49709;BME280;35601;55.902;13.606;2023-08-06T10:07:57;99894.93;;;14.84;79.41
49709;BME280;35601;55.902;13.606;2023-08-06T10:10:23;99898.97;;;14.69;78.89
49709;BME280;35601;55.902;13.606;2023-08-06T10:12:50;99897.18;;;14.85;78.51
49709;BME280;35601;55.902;13.606;2023-08-06T10:15:15;99894.90;;;14.98;78.56
49709;BME280;35601;55.902;13.606;2023-08-06T10:17:38;99892.07;;;15.15;77.53
49709;BME280;35601;55.902;13.606;2023-08-06T10:20:04;99887.12;;;15.04;75.91
49709;BME280;35601;55.902;13.606;2023-08-06T10:22:27;99881.98;;;15.01;76.74
49709;BME280;35601;55.902;13.606;2023-08-06T10:24:54;99879.19;;;15.07;76.43
49709;BME280;35601;55.902;13.606;2023-08-06T10:27:22;99874.22;;;14.85;76.46
49709;BME280;35601;55.902;13.606;2023-08-06T10:29:43;99872.50;;;15.17;76.57
49709;BME280;35601;55.902;13.606;2023-08-06T10:32:08;99864.81;;;14.96;75.83
49709;BME280;35601;55.902;13.606;2023-08-06T10:36:59;99855.59;;;14.86;78.68
49709;BME280;35601;55.902;13.606;2023-08-06T10:39:24;99850.12;;;14.77;78.26
49709;BME280;35601;55.902;13.606;2023-08-06T10:41:49;99845.15;;;14.89;78.78
49709;BME280;35601;55.902;13.606;2023-08-06T10:44:14;99838.13;;;14.80;78.30
49709;BME280;35601;55.902;13.606;2023-08-06T10:46:39;99834.22;;;15.04;79.50
49709;BME280;35601;55.902;13.606;2023-08-06T10:49:04;99831.03;;;14.70;79.79
49709;BME280;35601;55.902;13.606;2023-08-06T10:51:30;99825.77;;;14.76;79.61
49709;BME280;35601;55.902;13.606;2023-08-06T10:53:55;99818.34;;;15.00;78.83
49709;BME280;35601;55.902;13.606;2023-08-06T10:56:21;99818.36;;;14.70;80.01
49709;BME280;35601;55.902;13.606;2023-08-06T10:58:46;99813.69;;;14.59;80.40
49709;BME280;35601;55.902;13.606;2023-08-06T11:01:10;99813.13;;;14.73;80.37
49709;BME280;35601;55.902;13.606;2023-08-06T11:03:36;99807.47;;;14.56;80.10
49709;BME280;35601;55.902;13.606;2023-08-06T11:06:00;99800.54;;;14.92;80.79
49709;BME280;35601;55.902;13.606;2023-08-06T11:08:26;99797.63;;;14.90;80.52
49709;BME280;35601;55.902;13.606;2023-08-06T11:10:51;99792.64;;;14.70;80.35
49709;BME280;35601;55.902;13.606;2023-08-06T11:13:16;99788.06;;;14.47;82.13
49709;BME280;35601;55.902;13.606;2023-08-06T11:15:41;99781.63;;;14.64;82.79
49709;BME280;35601;55.902;13.606;2023-08-06T11:18:06;99777.12;;;14.53;81.53
49709;BME280;35601;55.902;13.606;2023-08-06T11:20:33;99778.98;;;14.36;82.04
49709;BME280;35601;55.902;13.606;2023-08-06T11:22:57;99780.67;;;14.38;83.52
49709;BME280;35601;55.902;13.606;2023-08-06T11:25:22;99775.81;;;14.59;82.54
49709;BME280;35601;55.902;13.606;2023-08-06T11:27:47;99774.29;;;14.41;82.52
49709;BME280;35601;55.902;13.606;2023-08-06T11:30:12;99777.09;;;14.45;83.89
49709;BME280;35601;55.902;13.606;2023-08-06T11:32:46;99776.24;;;14.31;83.00
49709;BME280;35601;55.902;13.606;2023-08-06T11:35:09;99774.76;;;14.17;83.24
49709;BME280;35601;55.902;13.606;2023-08-06T11:37:28;99774.75;;;14.24;84.55
49709;BME280;35601;55.902;13.606;2023-08-06T11:39:54;99778.74;;;14.16;84.56
49709;BME280;35601;55.902;13.606;2023-08-06T11:42:19;99774.00;;;14.16;83.58
49709;BME280;35601;55.902;13.606;2023-08-06T11:44:44;99769.69;;;14.15;83.52
49709;BME280;35601;55.902;13.606;2023-08-06T11:47:12;99764.94;;;14.46;84.29
49709;BME280;35601;55.902;13.606;2023-08-06T11:49:39;99758.64;;;14.04;85.43
49709;BME280;35601;55.902;13.606;2023-08-06T11:52:00;99750.03;;;14.21;85.50
49709;BME280;35601;55.902;13.606;2023-08-06T11:54:30;99750.48;;;14.19;85.46
49709;BME280;35601;55.902;13.606;2023-08-06T11:56:50;99746.22;;;14.14;86.21
49709;BME280;35601;55.902;13.606;2023-08-06T11:59:15;99737.96;;;14.25;84.94
49709;BME280;35601;55.902;13.606;2023-08-06T12:01:41;99733.45;;;13.82;85.54
49709;BME280;35601;55.902;13.606;2023-08-06T12:04:06;99734.85;;;13.82;84.88
49709;BME280;35601;55.902;13.606;2023-08-06T12:06:31;99733.54;;;14.06;85.89
49709;BME280;35601;55.902;13.606;2023-08-06T12:08:56;99728.65;;;13.74;84.08
49709;BME280;35601;55.902;13.606;2023-08-06T12:11:21;99723.81;;;13.92;83.90
49709;BME280;35601;55.902;13.606;2023-08-06T12:13:50;99713.81;;;14.01;84.01
49709;BME280;35601;55.902;13.606;2023-08-06T12:16:11;99708.03;;;13.97;83.93
49709;BME280;35601;55.902;13.606;2023-08-06T12:18:37;99705.17;;;13.98;84.74
49709;BME280;35601;55.902;13.606;2023-08-06T12:21:02;99699.57;;;13.75;83.49
49709;BME280;35601;55.902;13.606;2023-08-06T12:23:27;99696.86;;;13.87;84.24
49709;BME280;35601;55.902;13.606;2023-08-06T12:25:52;99690.33;;;13.94;85.19
49709;BME280;35601;55.902;13.606;2023-08-06T12:28:17;99686.54;;;13.87;85.64
49709;BME280;35601;55.902;13.606;2023-08-06T12:30:42;99686.80;;;13.90;85.54
49709;BME280;35601;55.902;13.606;2023-08-06T12:33:07;99681.77;;;13.68;86.91
49709;BME280;35601;55.902;13.606;2023-08-06T12:35:33;99682.77;;;13.55;85.84